createdAt,value
2023-02-12T00:01:29.333Z,35.72
2023-02-12T00:03:58.060Z,34.92
2023-02-12T00:06:26.509Z,33.22
2023-02-12T00:08:56.250Z,33.67
2023-02-12T00:11:27.363Z,33.75
2023-02-12T00:13:56.367Z,32.30
2023-02-12T00:16:27.735Z,32.20
2023-02-12T00:18:57.685Z,32.30
2023-02-12T00:21:25.811Z,31.77
2023-02-12T00:23:53.872Z,32.10
2023-02-12T00:26:23.120Z,31.55
2023-02-12T00:28:52.863Z,32.38
2023-02-12T00:31:27.231Z,31.73
2023-02-12T00:33:59.473Z,31.75
2023-02-12T00:36:29.447Z,32.20
2023-02-12T00:38:58.074Z,32.33
2023-02-12T00:41:26.464Z,33.97
2023-02-12T00:43:54.453Z,32.13
2023-02-12T00:46:22.472Z,32.28
2023-02-12T00:48:50.813Z,34.22
2023-02-12T00:51:21.572Z,32.80
2023-02-12T00:53:49.531Z,35.85
2023-02-12T00:56:17.613Z,36.17
2023-02-12T00:58:45.558Z,36.17
2023-02-12T01:01:13.615Z,39.20
2023-02-12T01:03:41.703Z,40.55
2023-02-12T01:06:09.611Z,39.53
2023-02-12T01:08:37.469Z,39.40
2023-02-12T01:11:06.258Z,41.47
2023-02-12T01:13:35.825Z,39.80
2023-02-12T01:16:19.176Z,39.28
2023-02-12T01:18:47.712Z,38.08
2023-02-12T01:21:19.400Z,37.63
2023-02-12T01:23:48.679Z,40.65
2023-02-12T01:26:17.926Z,39.85
2023-02-12T01:28:50.765Z,44.70
2023-02-12T01:31:22.349Z,42.67
2023-02-12T01:33:54.286Z,43.05
2023-02-12T01:36:22.508Z,47.58
2023-02-12T01:38:50.981Z,45.80
2023-02-12T01:41:25.494Z,46.45
2023-02-12T01:44:21.191Z,49.13
2023-02-12T01:46:55.637Z,49.35
2023-02-12T01:49:38.550Z,50.40
2023-02-12T01:52:25.183Z,55.10
2023-02-12T01:54:57.310Z,54.67
2023-02-12T01:57:28.876Z,55.22
2023-02-12T02:00:01.004Z,56.60
2023-02-12T02:02:31.823Z,55.67
2023-02-12T02:05:03.111Z,54.97
2023-02-12T02:07:31.745Z,51.60
2023-02-12T02:10:00.339Z,51.33
2023-02-12T02:12:49.729Z,51.75
2023-02-12T02:15:18.288Z,46.55
2023-02-12T02:17:51.730Z,47.85
2023-02-12T02:23:19.428Z,43.97
2023-02-12T02:25:58.236Z,45.40
2023-02-12T02:28:43.298Z,44.65
2023-02-12T02:31:43.889Z,44.42
2023-02-12T02:34:55.646Z,42.95
2023-02-12T02:37:43.853Z,42.63
2023-02-12T02:40:18.395Z,40.25
2023-02-12T02:42:58.804Z,42.42
2023-02-12T02:45:43.814Z,41.47
2023-02-12T02:48:18.945Z,39.53
2023-02-12T02:50:53.331Z,37.75
2023-02-12T02:53:48.722Z,38.90
2023-02-12T02:56:20.377Z,38.88
2023-02-12T02:58:57.100Z,38.95
2023-02-12T03:01:36.286Z,35.90
2023-02-12T03:04:08.029Z,36.80
2023-02-12T03:06:55.233Z,35.25
2023-02-12T03:09:34.976Z,33.30
2023-02-12T03:12:18.674Z,33.60
2023-02-12T03:15:03.192Z,34.42
2023-02-12T03:17:36.231Z,33.63
2023-02-12T03:20:15.999Z,33.70
2023-02-12T03:22:51.630Z,31.95
2023-02-12T03:25:28.793Z,33.58
2023-02-12T03:28:19.577Z,34.30
2023-02-12T03:31:19.514Z,33.35
2023-02-12T03:34:12.148Z,32.50
2023-02-12T03:36:57.389Z,31.77
2023-02-12T03:40:06.099Z,31.73
2023-02-12T03:42:45.939Z,32.83
2023-02-12T03:45:29.686Z,30.17
2023-02-12T03:48:10.360Z,31.73
2023-02-12T03:51:11.210Z,31.98
2023-02-12T03:53:39.250Z,32.13
2023-02-12T03:56:13.348Z,31.40
2023-02-12T03:58:43.338Z,30.83
2023-02-12T04:01:12.771Z,31.73
2023-02-12T04:03:41.966Z,31.08
2023-02-12T04:06:36.470Z,30.27
2023-02-12T04:09:07.702Z,31.25
2023-02-12T04:11:55.214Z,31.13
2023-02-12T04:14:50.432Z,30.92
2023-02-12T04:17:27.149Z,30.48
2023-02-12T04:20:08.961Z,30.63
2023-02-12T04:22:51.855Z,31.63
2023-02-12T04:25:41.361Z,31.40
2023-02-12T04:28:15.326Z,31.30
2023-02-12T04:31:03.488Z,31.83
2023-02-12T04:33:48.835Z,29.77
2023-02-12T04:36:28.833Z,29.80
2023-02-12T04:39:02.467Z,30.50
2023-02-12T04:41:32.034Z,31.77
2023-02-12T04:44:14.368Z,31.52
2023-02-12T04:46:42.369Z,30.75
2023-02-12T04:49:15.509Z,30.35
2023-02-12T04:51:44.289Z,31.63
2023-02-12T04:54:12.789Z,30.35
2023-02-12T04:56:40.868Z,30.58
2023-02-12T04:59:09.537Z,31.48
2023-02-12T05:01:39.290Z,31.02
2023-02-12T05:04:08.380Z,29.73
2023-02-12T05:06:37.761Z,30.83
2023-02-12T05:09:07.152Z,29.35
2023-02-12T05:11:35.164Z,30.70
2023-02-12T05:14:03.193Z,31.08
2023-02-12T05:16:31.094Z,29.70
2023-02-12T05:18:58.899Z,29.58
2023-02-12T05:21:26.820Z,30.35
2023-02-12T05:23:54.817Z,31.30
2023-02-12T05:26:23.033Z,31.38
2023-02-12T05:28:50.900Z,31.00
2023-02-12T05:31:21.656Z,31.55
2023-02-12T05:33:50.409Z,30.85
2023-02-12T05:36:21.214Z,31.95
2023-02-12T05:38:50.141Z,31.15
2023-02-12T05:41:24.188Z,32.53
2023-02-12T05:43:52.176Z,32.63
2023-02-12T05:46:21.974Z,34.05
2023-02-12T05:48:50.426Z,33.85
2023-02-12T05:51:26.960Z,34.72
2023-02-12T05:54:01.371Z,36.08
2023-02-12T05:56:31.701Z,36.35
2023-02-12T05:59:06.641Z,37.03
2023-02-12T06:01:37.700Z,35.22
2023-02-12T06:04:08.396Z,35.35
2023-02-12T06:06:36.800Z,35.97
2023-02-12T06:09:04.623Z,33.85
2023-02-12T06:11:32.408Z,35.30
2023-02-12T06:14:03.901Z,33.88
2023-02-12T06:16:33.337Z,34.40
2023-02-12T06:19:03.682Z,32.85
2023-02-12T06:21:32.425Z,34.97
2023-02-12T06:24:00.661Z,32.92
2023-02-12T06:26:28.799Z,34.97
2023-02-12T06:28:56.986Z,33.72
2023-02-12T06:31:33.879Z,32.35
2023-02-12T06:34:05.185Z,33.72
2023-02-12T06:36:33.841Z,34.67
2023-02-12T06:39:03.152Z,34.10
2023-02-12T06:41:31.099Z,31.88
2023-02-12T06:43:59.072Z,34.00
2023-02-12T06:46:26.996Z,31.73
2023-02-12T06:48:57.051Z,32.78
2023-02-12T06:51:26.384Z,30.98
2023-02-12T06:53:55.728Z,32.90
2023-02-12T06:56:25.105Z,33.67
2023-02-12T06:58:55.985Z,32.53
2023-02-12T07:01:29.624Z,33.00
2023-02-12T07:04:02.599Z,33.97
2023-02-12T07:06:33.929Z,33.03
2023-02-12T07:09:03.406Z,33.20
2023-02-12T07:11:36.161Z,33.05
2023-02-12T07:14:07.168Z,32.13
2023-02-12T07:16:35.123Z,33.33
2023-02-12T07:19:03.155Z,34.42
2023-02-12T07:21:32.297Z,31.63
2023-02-12T07:24:00.425Z,35.75
2023-02-12T07:26:28.283Z,35.35
2023-02-12T07:28:58.788Z,37.05
2023-02-12T07:31:26.834Z,36.95
2023-02-12T07:33:56.870Z,35.88
2023-02-12T07:36:26.889Z,37.13
2023-02-12T07:38:56.134Z,37.15
2023-02-12T07:41:26.726Z,38.08
2023-02-12T07:44:14.229Z,37.25
2023-02-12T07:46:49.347Z,35.40
2023-02-12T07:49:20.676Z,35.92
2023-02-12T07:51:49.994Z,32.90
2023-02-12T07:54:18.461Z,32.13
2023-02-12T07:56:49.044Z,32.85
2023-02-12T07:59:18.919Z,34.42
2023-02-12T08:01:49.359Z,32.80
2023-02-12T08:04:20.634Z,30.17
2023-02-12T08:06:51.527Z,29.83
2023-02-12T08:09:23.323Z,28.67
2023-02-12T08:11:51.792Z,27.63
2023-02-12T08:14:22.373Z,27.35
2023-02-12T08:16:50.933Z,28.80
2023-02-12T08:19:23.936Z,29.20
2023-02-12T08:21:55.511Z,27.38
2023-02-12T08:24:24.697Z,27.02
2023-02-12T08:26:52.926Z,28.67
2023-02-12T08:29:24.339Z,27.48
2023-02-12T08:32:00.556Z,27.70
2023-02-12T08:34:31.844Z,28.90
2023-02-12T08:37:00.509Z,29.10
2023-02-12T08:39:30.236Z,38.03
2023-02-12T08:41:59.650Z,40.88
2023-02-12T08:44:28.353Z,42.63
2023-02-12T08:46:56.222Z,41.85
2023-02-12T08:49:29.229Z,40.10
2023-02-12T08:51:58.449Z,36.63
2023-02-12T08:54:29.269Z,38.40
2023-02-12T08:56:58.881Z,36.70
2023-02-12T08:59:27.352Z,35.28
2023-02-12T09:01:55.726Z,35.00
2023-02-12T09:04:27.252Z,38.45
2023-02-12T09:06:56.229Z,40.75
2023-02-12T09:09:24.372Z,40.78
2023-02-12T09:11:52.224Z,40.25
2023-02-12T09:14:24.652Z,41.85
2023-02-12T09:16:54.381Z,40.83
2023-02-12T09:19:22.519Z,40.25
2023-02-12T09:21:56.114Z,40.80
2023-02-12T09:24:27.885Z,37.88
2023-02-12T09:26:56.552Z,37.20
2023-02-12T09:29:24.742Z,36.20
2023-02-12T09:31:52.861Z,35.45
2023-02-12T09:34:20.920Z,37.08
2023-02-12T09:36:48.789Z,34.63
2023-02-12T09:39:16.655Z,34.00
2023-02-12T09:42:15.580Z,34.92
2023-02-12T09:44:46.411Z,35.45
2023-02-12T09:47:36.490Z,33.05
2023-02-12T09:50:07.731Z,32.85
2023-02-12T09:52:37.586Z,32.85
2023-02-12T09:55:06.093Z,34.08
2023-02-12T09:57:37.166Z,30.75
2023-02-12T10:00:32.134Z,33.65
2023-02-12T10:03:06.005Z,31.65
2023-02-12T10:05:43.254Z,29.50
2023-02-12T10:08:41.921Z,30.85
2023-02-12T10:11:21.840Z,31.65
2023-02-12T10:14:10.566Z,32.83
2023-02-12T10:16:44.399Z,31.30
2023-02-12T10:19:30.875Z,33.20
2023-02-12T10:22:19.758Z,32.42
2023-02-12T10:25:24.792Z,35.33
2023-02-12T10:27:55.816Z,33.45
2023-02-12T10:30:32.697Z,34.70
2023-02-12T10:33:29.778Z,33.58
2023-02-12T10:36:36.523Z,32.15
2023-02-12T10:39:18.342Z,31.50
2023-02-12T10:42:01.120Z,29.63
2023-02-12T10:44:29.094Z,29.38
2023-02-12T10:47:01.498Z,27.80
2023-02-12T10:49:32.781Z,29.00
2023-02-12T10:52:42.184Z,29.58
2023-02-12T10:55:28.820Z,28.58
2023-02-12T10:57:58.177Z,30.20
2023-02-12T11:00:33.834Z,31.45
2023-02-12T11:03:13.742Z,29.08
2023-02-12T11:05:44.191Z,29.75
2023-02-12T11:08:32.754Z,27.92
2023-02-12T11:11:26.972Z,27.83
2023-02-12T11:14:07.278Z,28.30
2023-02-12T11:16:39.940Z,30.08
2023-02-12T11:19:19.079Z,31.52
2023-02-12T11:21:47.659Z,30.38
2023-02-12T11:24:28.464Z,27.83
2023-02-12T11:27:30.185Z,26.75
2023-02-12T11:30:10.557Z,25.25
2023-02-12T11:32:38.722Z,25.27
2023-02-12T11:35:26.000Z,26.52
2023-02-12T11:37:57.795Z,26.23
2023-02-12T11:40:28.766Z,28.25
2023-02-12T11:43:00.868Z,28.77
2023-02-12T11:45:37.469Z,27.25
2023-02-12T11:48:36.100Z,29.38
2023-02-12T11:51:09.230Z,28.63
2023-02-12T11:53:42.501Z,27.67
2023-02-12T11:56:13.521Z,29.45
2023-02-12T11:58:41.569Z,31.25
2023-02-12T12:01:16.562Z,32.00
2023-02-12T12:03:56.165Z,31.42
2023-02-12T12:06:29.971Z,31.73
2023-02-12T12:09:03.250Z,30.45
2023-02-12T12:12:08.577Z,27.58
2023-02-12T12:15:09.533Z,27.85
2023-02-12T12:18:25.370Z,28.92
2023-02-12T12:20:57.177Z,28.75
2023-02-12T12:23:36.000Z,27.33
2023-02-12T12:26:19.152Z,25.88
2023-02-12T12:28:51.041Z,25.05
2023-02-12T12:31:54.204Z,25.63
2023-02-12T12:37:15.647Z,26.60
2023-02-12T12:40:02.152Z,27.42
2023-02-12T12:42:56.233Z,27.23
2023-02-12T12:45:41.353Z,28.40
2023-02-12T12:48:24.017Z,28.13
2023-02-12T12:51:30.100Z,28.40
2023-02-12T12:54:00.702Z,31.83
2023-02-12T12:57:10.211Z,32.03
2023-02-12T12:59:47.962Z,31.45
2023-02-12T13:02:53.634Z,32.83
2023-02-12T13:05:43.822Z,32.47
2023-02-12T13:08:36.253Z,34.13
2023-02-12T13:11:46.033Z,34.22
2023-02-12T13:14:23.703Z,31.60
2023-02-12T13:17:23.805Z,31.90
2023-02-12T13:19:54.539Z,29.38
2023-02-12T13:22:44.726Z,26.85
2023-02-12T13:25:36.846Z,26.75
2023-02-12T13:28:10.588Z,21.20
2023-02-12T13:30:50.709Z,20.13
2023-02-12T13:33:27.904Z,16.10
2023-02-12T13:36:00.865Z,11.38
2023-02-12T13:38:54.866Z,11.52
2023-02-12T13:41:23.275Z,11.35
2023-02-12T13:44:33.019Z,11.80
2023-02-12T13:47:13.655Z,11.07
2023-02-12T13:49:50.178Z,10.82
2023-02-12T13:52:37.666Z,10.50
2023-02-12T13:55:24.460Z,9.93
2023-02-12T13:58:29.984Z,10.55
2023-02-12T14:01:01.149Z,10.63
2023-02-12T14:03:31.681Z,10.50
2023-02-12T14:06:18.222Z,10.45
2023-02-12T14:08:54.807Z,9.35
2023-02-12T14:11:26.289Z,11.25
2023-02-12T14:14:01.670Z,12.57
2023-02-12T14:16:29.473Z,13.18
2023-02-12T14:19:34.791Z,15.27
2023-02-12T14:22:24.093Z,11.35
2023-02-12T14:25:16.387Z,11.85
2023-02-12T14:28:13.177Z,11.90
2023-02-12T14:30:41.355Z,12.63
2023-02-12T14:33:11.212Z,12.73
2023-02-12T14:35:44.206Z,12.80
2023-02-12T14:38:12.027Z,13.57
2023-02-12T14:40:47.454Z,13.70
2023-02-12T14:43:54.411Z,14.15
2023-02-12T14:46:25.546Z,14.73
2023-02-12T14:49:07.664Z,13.70
2023-02-12T14:52:13.497Z,15.38
2023-02-12T14:55:13.779Z,14.50
2023-02-12T14:57:42.548Z,14.93
2023-02-12T15:00:21.771Z,15.38
2023-02-12T15:02:55.595Z,16.63
2023-02-12T15:05:31.151Z,16.95
2023-02-12T15:08:22.079Z,16.23
2023-02-12T15:10:55.589Z,17.08
2023-02-12T15:13:23.541Z,18.48
2023-02-12T15:16:31.945Z,19.95
2023-02-12T15:19:02.518Z,16.52
2023-02-12T15:21:33.022Z,17.77
2023-02-12T15:24:12.840Z,18.17
2023-02-12T15:26:53.140Z,19.38
2023-02-12T15:29:26.060Z,18.75
2023-02-12T15:34:27.845Z,18.05
2023-02-12T15:36:59.102Z,17.60
2023-02-12T15:39:28.359Z,16.92
2023-02-12T15:41:56.302Z,16.23
2023-02-12T15:44:32.827Z,16.48
2023-02-12T15:47:08.360Z,16.85
2023-02-12T15:49:38.779Z,16.17
2023-02-12T15:52:25.234Z,15.77
2023-02-12T15:54:53.368Z,16.13
2023-02-12T15:57:24.419Z,15.05
2023-02-12T15:59:55.505Z,16.83
2023-02-12T16:02:33.362Z,16.45
2023-02-12T16:05:04.940Z,15.88
2023-02-12T16:07:37.373Z,16.17
2023-02-12T16:10:06.682Z,15.88
2023-02-12T16:12:38.016Z,15.55
2023-02-12T16:15:06.510Z,15.30
2023-02-12T16:17:37.254Z,15.00
2023-02-12T16:20:19.891Z,15.45
2023-02-12T16:22:50.633Z,15.38
2023-02-12T16:25:20.594Z,14.88
2023-02-12T16:28:07.399Z,15.45
2023-02-12T16:30:42.877Z,15.73
2023-02-12T16:33:36.942Z,14.95
2023-02-12T16:36:31.946Z,15.63
2023-02-12T16:39:06.247Z,14.77
2023-02-12T16:41:56.787Z,15.65
2023-02-12T16:44:27.362Z,14.75
2023-02-12T16:46:58.890Z,20.17
2023-02-12T16:49:27.571Z,16.70
2023-02-12T16:52:19.579Z,18.08
2023-02-12T16:54:47.530Z,17.60
2023-02-12T16:57:15.462Z,17.15
2023-02-12T16:59:45.413Z,20.77
2023-02-12T17:02:15.771Z,17.67
2023-02-12T17:04:43.825Z,18.50
2023-02-12T17:07:24.786Z,18.10
2023-02-12T17:09:52.702Z,15.48
2023-02-12T17:12:21.035Z,14.90
2023-02-12T17:14:49.281Z,17.02
2023-02-12T17:17:17.566Z,17.90
2023-02-12T17:19:45.566Z,16.38
2023-02-12T17:22:24.755Z,14.65
2023-02-12T17:24:53.467Z,14.95
2023-02-12T17:27:21.581Z,13.70
2023-02-12T17:29:49.570Z,13.52
2023-02-12T17:32:17.509Z,13.30
2023-02-12T17:34:48.814Z,12.90
2023-02-12T17:37:18.437Z,13.43
2023-02-12T17:39:46.479Z,12.48
2023-02-12T17:42:14.475Z,11.35
2023-02-12T17:44:42.510Z,12.00
2023-02-12T17:47:10.578Z,10.85
2023-02-12T17:49:40.140Z,11.43
2023-02-12T17:52:08.329Z,12.18
2023-02-12T17:54:36.517Z,11.13
2023-02-12T17:57:04.556Z,10.90
2023-02-12T17:59:32.473Z,12.02
2023-02-12T18:02:00.707Z,18.27
2023-02-12T18:04:28.843Z,15.25
2023-02-12T18:06:57.799Z,14.38
2023-02-12T18:09:25.799Z,13.43
2023-02-12T18:11:53.846Z,12.30
2023-02-12T18:14:21.843Z,11.65
2023-02-12T18:16:49.863Z,11.85
2023-02-12T18:19:17.984Z,10.00
2023-02-12T18:21:45.905Z,11.20
2023-02-12T18:24:13.966Z,10.50
2023-02-12T18:26:42.040Z,10.68
2023-02-12T18:29:10.282Z,10.98
2023-02-12T18:31:38.349Z,10.82
2023-02-12T18:34:06.814Z,10.00
2023-02-12T18:36:35.133Z,10.30
2023-02-12T18:39:03.083Z,10.55
2023-02-12T18:41:33.003Z,11.35
2023-02-12T18:44:00.904Z,10.93
2023-02-12T18:46:31.932Z,11.20
2023-02-12T18:49:01.156Z,10.93
2023-02-12T18:51:36.825Z,9.77
2023-02-12T18:54:08.048Z,9.70
2023-02-12T18:56:38.307Z,10.52
2023-02-12T18:59:06.285Z,10.00
2023-02-12T19:01:37.627Z,10.20
2023-02-12T19:04:08.139Z,9.93
2023-02-12T19:06:41.520Z,10.25
2023-02-12T19:09:11.228Z,10.05
2023-02-12T19:11:39.140Z,9.73
2023-02-12T19:14:07.140Z,10.70
2023-02-12T19:16:35.247Z,10.27
2023-02-12T19:19:03.225Z,9.93
2023-02-12T19:21:31.328Z,10.20
2023-02-12T19:24:02.261Z,9.90
2023-02-12T19:26:31.307Z,10.30
2023-02-12T19:29:00.125Z,10.73
2023-02-12T19:31:31.943Z,10.07
2023-02-12T19:34:03.627Z,9.43
2023-02-12T19:36:33.646Z,10.32
2023-02-12T19:39:02.694Z,10.70
2023-02-12T19:41:31.299Z,10.63
2023-02-12T19:44:01.392Z,9.35
2023-02-12T19:46:31.423Z,9.63
2023-02-12T19:49:02.274Z,9.05
2023-02-12T19:51:31.173Z,9.60
2023-02-12T19:54:04.877Z,9.32
2023-02-12T19:56:35.526Z,10.02
2023-02-12T19:59:05.482Z,9.00
2023-02-12T20:01:34.213Z,9.30
2023-02-12T20:04:04.122Z,9.23
2023-02-12T20:06:37.346Z,9.05
2023-02-12T20:11:39.840Z,8.43
2023-02-12T20:14:10.572Z,8.73
2023-02-12T20:16:41.750Z,9.27
2023-02-12T20:19:12.895Z,9.88
2023-02-12T20:21:43.094Z,8.60
2023-02-12T20:24:11.153Z,8.98
2023-02-12T20:26:39.672Z,8.90
2023-02-12T20:29:07.708Z,9.48
2023-02-12T20:31:37.376Z,9.90
2023-02-12T20:34:09.000Z,9.98
2023-02-12T20:36:39.528Z,9.77
2023-02-12T20:39:10.199Z,10.57
2023-02-12T20:41:38.271Z,10.73
2023-02-12T20:44:09.062Z,11.63
2023-02-12T20:46:39.932Z,10.63
2023-02-12T20:49:08.108Z,11.35
2023-02-12T20:51:35.983Z,10.73
2023-02-12T20:54:04.146Z,10.75
2023-02-12T20:56:36.112Z,11.75
2023-02-12T20:59:05.520Z,10.68
2023-02-12T21:01:39.698Z,10.10
2023-02-12T21:04:11.399Z,9.30
2023-02-12T21:06:40.784Z,10.00
2023-02-12T21:09:10.538Z,10.00
2023-02-12T21:11:40.143Z,10.50
2023-02-12T21:14:21.760Z,9.02
2023-02-12T21:16:51.996Z,9.60
2023-02-12T21:19:19.730Z,10.00
2023-02-12T21:21:48.014Z,9.88
2023-02-12T21:24:21.858Z,10.38
2023-02-12T21:26:51.319Z,10.18
2023-02-12T21:29:20.163Z,10.15
2023-02-12T21:31:50.506Z,9.77
2023-02-12T21:34:21.734Z,9.15
2023-02-12T21:36:51.223Z,9.57
2023-02-12T21:39:26.412Z,9.88
2023-02-12T21:41:57.416Z,8.82
2023-02-12T21:44:26.231Z,8.73
2023-02-12T21:46:54.865Z,9.80
2023-02-12T21:49:26.660Z,9.10
2023-02-12T21:52:02.352Z,9.15
2023-02-12T21:54:30.954Z,9.77
2023-02-12T21:56:59.429Z,8.50
2023-02-12T21:59:30.714Z,10.65
2023-02-12T22:02:00.837Z,9.80
2023-02-12T22:04:29.456Z,9.63
2023-02-12T22:06:58.275Z,9.07
2023-02-12T22:09:26.269Z,9.18
2023-02-12T22:11:54.279Z,9.32
2023-02-12T22:14:22.741Z,9.65
2023-02-12T22:16:50.947Z,9.38
2023-02-12T22:19:19.214Z,9.52
2023-02-12T22:21:51.642Z,9.52
2023-02-12T22:24:20.716Z,9.38
2023-02-12T22:26:48.520Z,9.27
2023-02-12T22:29:16.740Z,9.05
2023-02-12T22:31:46.879Z,8.82
2023-02-12T22:34:17.162Z,8.93
2023-02-12T22:36:45.458Z,8.70
2023-02-12T22:39:14.402Z,9.93
2023-02-12T22:41:42.682Z,9.55
2023-02-12T22:44:12.398Z,9.35
2023-02-12T22:46:41.766Z,9.18
2023-02-12T22:49:10.311Z,9.70
2023-02-12T22:51:39.868Z,7.70
2023-02-12T22:54:12.571Z,8.15
2023-02-12T22:56:41.090Z,8.57
2023-02-12T22:59:11.344Z,8.63
2023-02-12T23:01:40.046Z,8.02
2023-02-12T23:04:08.327Z,7.70
2023-02-12T23:06:36.293Z,8.80
2023-02-12T23:09:04.920Z,8.98
2023-02-12T23:11:34.013Z,9.23
2023-02-12T23:14:02.012Z,8.77
2023-02-12T23:16:29.972Z,8.82
2023-02-12T23:19:00.207Z,9.18
2023-02-12T23:21:30.428Z,10.63
2023-02-12T23:24:02.165Z,9.98
2023-02-12T23:26:30.570Z,8.48
2023-02-12T23:28:58.857Z,9.52
2023-02-12T23:31:26.893Z,9.38
2023-02-12T23:33:54.982Z,8.70
2023-02-12T23:36:22.829Z,8.80
2023-02-12T23:38:50.803Z,8.35
2023-02-12T23:41:18.737Z,8.70
2023-02-12T23:43:46.632Z,7.97
2023-02-12T23:46:14.628Z,8.43
2023-02-12T23:48:42.571Z,8.25
2023-02-12T23:51:10.699Z,7.80
2023-02-12T23:53:38.651Z,8.02
2023-02-12T23:56:07.155Z,8.48
2023-02-12T23:58:35.025Z,8.43
